Sifnos, Greece
Current Conditions -  °F | °C
As of 8:20 AM on Saturday 25 Oct 2014 (Local Time) from LGSO Reporting Station
NA  
Wind Chill: 64°   Ceiling: NA
Heat Index: 64°   Visibility: NA
Dew Point: 50°   Wind: 14mph
Humidity: 59%   Direction: 220°SW
Pressure: 29.74"   Gusts: NA
Location:  36.98°N, 24.7°E
Report Text: LGSO 250520Z AUTO 22012KT 200V270 //// // ////// 18/10 Q1007 RE//
Loading
Personal Weather Stations






























Interactive Weather Map
Tropical Storm Tracking
New forecast layout! Learn more

10-Day Weather Forecast

Advertisements
Track Severe Weather on mobile